Time;durP1;ratioP1;P1;durP2;ratioP2;P2;SDS_P1;SDS_P2;PMS_P1;PMS_P2;Temp;Humidity;BMP_temperature;BMP_pressure;BME280_temperature;BME280_humidity;BME280_pressure;Samples;Min_cycle;Max_cycle;Signal;HPM_P1;HPM_P2
2023/03/24 05:04:46;;;;;;;23.35;13.30;;;;;;;7.75;100.00;100060.16;6137867;28;20085;-85
2023/03/24 05:07:50;;;;;;;22.92;14.00;;;;;;;7.81;100.00;100064.84;5264461;33;33988;-90
2023/03/24 05:10:53;;;;;;;26.83;14.02;;;;;;;7.93;100.00;100065.34;5264894;33;33832;-91
2023/03/24 05:13:55;;;;;;;27.35;13.57;;;;;;;7.99;100.00;100062.00;5263466;33;33429;-90
2023/03/24 05:17:00;;;;;;;25.60;15.18;;;;;;;8.08;100.00;100065.50;5273206;33;34236;-86
2023/03/24 05:20:10;;;;;;;33.10;14.18;;;;;;;8.14;100.00;100062.97;5273110;33;33719;-86
2023/03/24 05:23:15;;;;;;;24.58;14.23;;;;;;;8.25;100.00;100071.66;5276848;33;33272;-86
2023/03/24 05:26:19;;;;;;;26.40;15.20;;;;;;;8.34;100.00;100073.34;5275409;33;34385;-85
2023/03/24 05:29:23;;;;;;;43.33;16.85;;;;;;;8.43;100.00;100066.97;5277084;33;34584;-86
2023/03/24 05:32:28;;;;;;;29.90;16.55;;;;;;;8.57;100.00;100073.44;5247567;33;33596;-86
2023/03/24 05:35:31;;;;;;;29.83;16.12;;;;;;;8.65;99.65;100062.69;5261263;33;34135;-86
2023/03/24 05:38:34;;;;;;;27.17;14.63;;;;;;;8.83;98.33;100070.50;5259109;33;34323;-85
2023/03/24 05:41:37;;;;;;;22.70;13.73;;;;;;;8.98;96.90;100067.94;5258847;33;34394;-85
2023/03/24 05:44:40;;;;;;;22.23;13.52;;;;;;;9.09;94.93;100071.06;5259309;33;33258;-86
2023/03/24 05:47:43;;;;;;;26.27;13.80;;;;;;;9.25;93.27;100078.22;5271465;33;33508;-85
2023/03/24 05:50:46;;;;;;;21.98;13.20;;;;;;;9.48;90.75;100088.16;5271474;33;33726;-86
2023/03/24 05:53:51;;;;;;;24.58;14.10;;;;;;;9.78;88.29;100075.66;5271902;33;33258;-86
2023/03/24 05:56:54;;;;;;;22.83;14.05;;;;;;;10.02;86.26;100082.69;5272075;33;33353;-86
2023/03/24 05:59:57;;;;;;;24.12;13.88;;;;;;;10.36;84.00;100081.41;5273590;33;33939;-85
2023/03/24 06:03:01;;;;;;;24.00;13.13;;;;;;;10.83;81.39;100083.75;5261528;33;33198;-86
2023/03/24 06:06:13;;;;;;;23.98;13.73;;;;;;;11.15;77.66;100084.34;5261617;33;34886;-86
2023/03/24 06:09:16;;;;;;;22.55;13.07;;;;;;;11.44;74.72;100078.06;5261679;33;33515;-85
2023/03/24 06:12:20;;;;;;;21.67;13.80;;;;;;;11.64;74.32;100078.28;5260358;33;34268;-86
2023/03/24 06:15:26;;;;;;;23.83;13.85;;;;;;;11.79;73.56;100084.44;5284499;33;32905;-86
2023/03/24 06:18:30;;;;;;;23.58;13.25;;;;;;;11.84;73.26;100080.31;5291141;33;33972;-85
2023/03/24 06:21:35;;;;;;;18.08;12.30;;;;;;;11.84;71.55;100080.31;5267075;33;33864;-85
2023/03/24 06:24:38;;;;;;;20.75;12.70;;;;;;;11.94;71.31;100084.37;5279005;33;33545;-86
2023/03/24 06:27:45;;;;;;;20.30;12.77;;;;;;;11.89;70.93;100080.59;5270553;33;33652;-85
2023/03/24 06:30:48;;;;;;;21.12;11.63;;;;;;;12.00;70.88;100088.19;5282361;33;33462;-85
2023/03/24 06:33:52;;;;;;;22.33;13.93;;;;;;;11.93;69.93;100085.41;5268718;33;33476;-85
2023/03/24 06:36:55;;;;;;;21.33;13.40;;;;;;;11.95;69.21;100082.53;5267170;33;33793;-85
2023/03/24 06:39:58;;;;;;;20.27;13.55;;;;;;;11.95;69.75;100087.91;5267862;33;32973;-85
2023/03/24 06:43:01;;;;;;;18.83;12.65;;;;;;;12.09;69.65;100083.47;5284220;33;34018;-85
2023/03/24 06:46:05;;;;;;;19.30;12.48;;;;;;;12.28;67.08;100090.03;5259136;33;34262;-85
2023/03/24 06:49:08;;;;;;;19.77;12.75;;;;;;;12.52;66.43;100084.22;5274128;33;33921;-86
2023/03/24 06:52:10;;;;;;;21.80;12.27;;;;;;;12.80;65.22;100080.63;5266192;33;34211;-85
2023/03/24 06:55:14;;;;;;;21.15;13.20;;;;;;;12.88;63.81;100080.47;5269842;33;34220;-85
2023/03/24 06:58:17;;;;;;;16.87;12.80;;;;;;;12.89;63.26;100074.84;5276809;33;33168;-85
2023/03/24 07:01:21;;;;;;;21.27;13.45;;;;;;;12.93;64.07;100078.84;5274041;33;34646;-86
2023/03/24 07:04:24;;;;;;;17.85;12.95;;;;;;;13.16;62.65;100067.72;5283370;33;33657;-89
2023/03/24 07:07:28;;;;;;;21.37;12.50;;;;;;;13.47;60.83;100062.84;5287073;33;34040;-90
2023/03/24 07:10:52;;;;;;;19.42;12.88;;;;;;;13.72;60.51;100066.63;5270732;33;33523;-86
2023/03/24 07:13:56;;;;;;;18.95;13.18;;;;;;;14.06;59.11;100053.94;5288342;33;33116;-86
2023/03/24 07:16:58;;;;;;;20.30;13.43;;;;;;;14.05;58.46;100057.69;5290767;33;33444;-86
2023/03/24 07:20:07;;;;;;;24.15;14.32;;;;;;;14.15;58.26;100055.41;5277692;33;34292;-85
2023/03/24 07:23:11;;;;;;;20.50;13.90;;;;;;;14.38;57.08;100048.72;5286280;33;33766;-85
2023/03/24 07:26:16;;;;;;;19.92;12.80;;;;;;;14.83;56.12;100051.53;5268433;33;33645;-85
2023/03/24 07:29:21;;;;;;;18.55;12.45;;;;;;;14.87;55.16;100055.50;5274138;33;33987;-85
2023/03/24 07:32:25;;;;;;;19.05;13.00;;;;;;;14.54;55.52;100056.44;5272115;33;33805;-86
2023/03/24 07:35:28;;;;;;;18.58;12.63;;;;;;;14.66;56.08;100040.37;5276195;33;33676;-85
2023/03/24 07:38:32;;;;;;;21.52;12.95;;;;;;;14.65;55.55;100034.09;5266572;33;34923;-86
2023/03/24 07:41:35;;;;;;;20.27;13.32;;;;;;;15.08;55.15;100029.97;5288138;33;33849;-85
2023/03/24 07:44:40;;;;;;;19.55;12.63;;;;;;;15.25;54.38;100027.59;5291086;33;33648;-85
2023/03/24 07:47:45;;;;;;;17.92;12.48;;;;;;;15.37;53.58;100025.84;5264735;33;33309;-85
2023/03/24 07:50:48;;;;;;;17.45;12.00;;;;;;;15.66;51.94;100035.28;5285841;33;33299;-86
2023/03/24 07:53:52;;;;;;;18.33;12.18;;;;;;;15.80;52.73;100033.34;5270941;33;33489;-85
2023/03/24 07:56:55;;;;;;;19.05;11.73;;;;;;;15.76;51.50;100040.22;5273153;33;33063;-85
2023/03/24 07:59:59;;;;;;;19.73;12.00;;;;;;;15.75;51.31;100027.72;5277975;33;32886;-86
2023/03/24 08:03:08;;;;;;;18.52;11.57;;;;;;;15.78;51.76;100032.72;5273431;33;34122;-85
2023/03/24 08:06:14;;;;;;;18.35;10.73;;;;;;;15.89;50.30;100037.44;5267410;33;33157;-86
2023/03/24 08:09:17;;;;;;;17.35;11.27;;;;;;;16.08;50.54;100027.44;5273102;33;34022;-86
2023/03/24 08:12:20;;;;;;;16.55;11.05;;;;;;;16.31;49.57;100016.78;5260230;33;33503;-86
2023/03/24 08:15:25;;;;;;;17.17;10.93;;;;;;;16.63;49.92;100013.94;5260158;33;33495;-85
2023/03/24 08:18:33;;;;;;;16.40;10.90;;;;;;;16.66;49.53;100009.94;5273029;33;34679;-85
2023/03/24 08:21:36;;;;;;;17.20;11.05;;;;;;;16.62;47.81;99998.69;5272780;33;34292;-85
2023/03/24 08:24:40;;;;;;;14.68;9.63;;;;;;;16.74;47.99;99994.16;5269229;33;33798;-86
2023/03/24 08:27:43;;;;;;;15.65;9.35;;;;;;;16.76;47.97;99997.50;5262134;33;33804;-86
2023/03/24 08:30:47;;;;;;;14.27;9.27;;;;;;;16.53;48.28;99987.28;5260229;33;33991;-85
2023/03/24 08:33:52;;;;;;;13.15;9.13;;;;;;;16.60;48.93;99989.94;5260135;33;33756;-86
2023/03/24 08:36:55;;;;;;;14.85;9.70;;;;;;;16.78;47.95;99979.06;5272709;33;33340;-85
2023/03/24 08:40:02;;;;;;;15.52;10.20;;;;;;;16.68;47.94;99989.62;5259661;33;33283;-85
2023/03/24 08:43:08;;;;;;;16.77;9.88;;;;;;;16.61;47.98;99986.16;5248969;33;33836;-90
2023/03/24 08:46:11;;;;;;;16.33;10.50;;;;;;;16.66;48.86;99980.03;5281591;33;33305;-90
2023/03/24 08:49:16;;;;;;;11.40;8.30;;;;;;;16.90;48.17;99970.97;5289391;33;33536;-86
2023/03/24 08:52:19;;;;;;;16.17;9.05;;;;;;;16.84;47.89;99963.72;5275603;33;33182;-86
2023/03/24 08:55:23;;;;;;;13.27;8.82;;;;;;;16.88;47.91;99964.13;5265700;33;33870;-86
2023/03/24 08:58:25;;;;;;;13.77;8.70;;;;;;;17.14;48.26;99961.03;5289887;33;33586;-86
2023/03/24 09:01:28;;;;;;;12.75;8.02;;;;;;;17.38;47.50;99963.84;5290570;33;33447;-86
2023/03/24 09:04:31;;;;;;;12.98;8.32;;;;;;;17.38;46.53;99963.84;5284893;33;34576;-86
2023/03/24 09:07:34;;;;;;;14.70;8.52;;;;;;;17.12;47.64;99962.31;5269518;33;33211;-85
2023/03/24 09:10:40;;;;;;;8.80;6.93;;;;;;;17.43;47.10;99963.94;5288474;33;33450;-85
2023/03/24 09:13:43;;;;;;;11.65;7.57;;;;;;;17.44;46.86;99961.00;5288780;33;33493;-85
2023/03/24 09:16:47;;;;;;;11.80;7.62;;;;;;;17.44;46.14;99961.00;5247407;33;33611;-86
2023/03/24 09:19:50;;;;;;;12.50;7.12;;;;;;;17.65;46.34;99951.44;5264662;33;33406;-86
2023/03/24 09:22:54;;;;;;;13.85;7.40;;;;;;;17.81;45.45;99960.00;5264165;33;33054;-85
2023/03/24 09:25:57;;;;;;;10.85;7.20;;;;;;;17.92;45.63;99952.91;5273836;33;32186;-85
2023/03/24 09:29:01;;;;;;;9.65;6.47;;;;;;;18.02;45.43;99945.00;5276936;33;33551;-86
2023/03/24 09:32:04;;;;;;;10.68;6.65;;;;;;;18.00;46.00;99950.66;5266974;33;34237;-85
2023/03/24 09:35:07;;;;;;;9.43;6.87;;;;;;;18.08;45.14;99952.22;5261207;33;33523;-85
2023/03/24 09:38:11;;;;;;;10.50;6.57;;;;;;;18.33;44.67;99946.50;5270410;33;33415;-86
2023/03/24 09:41:32;;;;;;;10.07;6.57;;;;;;;18.51;44.57;99950.97;5283400;33;33860;-85
2023/03/24 09:44:42;;;;;;;7.85;6.30;;;;;;;18.51;44.04;99946.34;5276220;33;33509;-85
2023/03/24 09:47:57;;;;;;;10.50;7.07;;;;;;;18.71;44.81;99937.75;5282730;33;33322;-85
2023/03/24 09:51:06;;;;;;;11.25;7.22;;;;;;;18.51;45.43;99932.69;5279723;33;33636;-85
2023/03/24 09:54:31;;;;;;;11.15;7.93;;;;;;;18.71;44.18;99921.38;5280292;33;33529;-85
2023/03/24 09:57:49;;;;;;;12.20;7.78;;;;;;;18.47;44.58;99914.34;5303625;33;33462;-85
2023/03/24 10:00:52;;;;;;;12.73;7.62;;;;;;;18.63;44.75;99908.13;5281899;33;33873;-86
2023/03/24 12:56:45;;;;;;;3.20;1.77;;;;;;;28.56;24.67;99659.69;5322673;28;34617;-85
2023/03/24 13:00:00;;;;;;;5.75;1.80;;;;;;;28.57;24.08;99648.28;5274604;33;33868;-85
2023/03/24 13:03:13;;;;;;;1.98;1.77;;;;;;;28.19;24.78;99645.84;5278668;33;34913;-85
2023/03/24 13:06:25;;;;;;;2.00;1.50;;;;;;;28.99;23.82;99651.63;5285731;33;33693;-84
2023/03/24 13:09:34;;;;;;;2.35;1.62;;;;;;;28.22;25.10;99634.16;5285012;33;33802;-84
2023/03/24 13:12:54;;;;;;;2.78;2.10;;;;;;;27.55;25.48;99642.28;5276970;33;33635;-84
2023/03/24 13:16:05;;;;;;;;;;;;;;;27.30;26.16;99636.16;5263232;33;33679;-84
2023/03/24 13:19:18;;;;;;;3.95;1.90;;;;;;;26.79;26.32;99633.50;5271836;33;33435;-84
2023/03/24 13:22:23;;;;;;;2.75;2.15;;;;;;;25.95;27.77;99621.34;5266115;33;33341;-85
2023/03/24 13:25:49;;;;;;;5.07;1.92;;;;;;;26.46;26.97;99612.22;5258958;33;33367;-84
2023/03/24 13:29:09;;;;;;;2.35;2.12;;;;;;;26.63;27.03;99600.66;5255043;33;33126;-85
2023/03/24 13:32:22;;;;;;;2.87;1.80;;;;;;;26.07;27.32;99615.38;5254953;33;33548;-85
2023/03/24 13:35:38;;;;;;;3.08;2.03;;;;;;;26.18;27.32;99616.84;5271728;33;33442;-89
2023/03/24 13:38:55;;;;;;;2.92;1.98;;;;;;;26.98;26.34;99608.59;5271756;33;34721;-85
2023/03/24 13:41:59;;;;;;;3.03;1.98;;;;;;;26.61;26.49;99604.84;5273608;33;33533;-85
2023/03/24 13:45:06;;;;;;;4.80;2.05;;;;;;;26.00;27.25;99614.91;5264468;33;34480;-85
2023/03/24 13:48:09;;;;;;;3.10;2.10;;;;;;;26.19;27.10;99603.88;5273281;33;35057;-85
2023/03/24 13:51:18;;;;;;;2.10;1.90;;;;;;;28.24;25.00;99600.62;5271667;33;33823;-85
2023/03/24 13:54:25;;;;;;;2.75;1.80;;;;;;;30.81;22.59;99591.97;5271553;33;34746;-85
2023/03/24 13:57:28;;;;;;;4.68;2.00;;;;;;;31.22;21.22;99585.75;5271494;33;34301;-85
2023/03/24 14:00:31;;;;;;;1.85;1.73;;;;;;;32.12;20.82;99583.66;5273748;33;33864;-85
2023/03/24 14:03:39;;;;;;;3.37;1.80;;;;;;;31.88;20.77;99587.13;5270258;33;33695;-85
2023/03/24 14:06:56;;;;;;;3.23;2.10;;;;;;;33.04;19.57;99586.16;5271954;33;33395;-85
2023/03/24 14:10:10;;;;;;;3.07;1.80;;;;;;;32.60;19.84;99577.47;5271607;33;33303;-85
2023/03/24 14:13:12;;;;;;;2.62;1.58;;;;;;;32.35;19.89;99570.97;5271474;33;33650;-85
2023/03/24 14:16:51;;;;;;;2.50;1.90;;;;;;;32.84;19.83;99559.16;5271683;33;34234;-85
2023/03/24 14:19:56;;;;;;;;;;;;;;;32.56;19.81;99559.81;5273048;33;33384;-85
2023/03/24 14:22:59;;;;;;;2.50;1.87;;;;;;;30.72;21.69;99562.22;5273846;33;33078;-85
2023/03/24 14:26:04;;;;;;;1.83;1.70;;;;;;;28.43;23.99;99554.22;5272092;33;33909;-85
2023/03/24 14:29:32;;;;;;;2.92;1.98;;;;;;;27.53;25.32;99561.59;5273277;33;33249;-85
2023/03/24 14:32:42;;;;;;;1.75;1.60;;;;;;;28.67;24.09;99551.09;5273277;33;33130;-85
2023/03/24 14:35:47;;;;;;;3.67;1.80;;;;;;;29.31;23.22;99561.78;5272338;33;34905;-85
2023/03/24 14:38:51;;;;;;;4.97;1.90;;;;;;;28.05;24.78;99553.75;5273624;33;33672;-85
2023/03/24 14:41:54;;;;;;;4.82;1.95;;;;;;;25.79;27.47;99564.72;5273603;33;33234;-85
2023/03/24 14:45:20;;;;;;;3.20;2.17;;;;;;;24.65;29.21;99553.47;5273039;33;33163;-85
2023/03/24 14:49:04;;;;;;;2.53;2.22;;;;;;;24.20;30.15;99557.44;5260408;33;33107;-85
2023/03/24 14:52:10;;;;;;;2.22;2.00;;;;;;;23.64;31.22;99560.59;5260274;33;33409;-85
2023/03/24 14:55:18;;;;;;;2.90;2.25;;;;;;;23.56;30.94;99555.69;5273448;33;33041;-85
2023/03/24 14:58:25;;;;;;;;;;;;;;;23.12;31.80;99548.22;5260792;33;34192;-84
2023/03/24 15:01:33;;;;;;;2.75;2.20;;;;;;;23.14;31.90;99557.81;5250008;33;223567;-84
2023/03/24 15:04:38;;;;;;;3.83;2.20;;;;;;;23.18;31.96;99553.41;5272808;33;33511;-85
2023/03/24 15:07:42;;;;;;;3.35;2.05;;;;;;;23.13;32.51;99547.09;5273028;33;33457;-84
2023/03/24 15:10:48;;;;;;;6.85;2.50;;;;;;;22.83;32.95;99549.66;5273200;33;33210;-84
2023/03/24 15:13:53;;;;;;;4.32;2.58;;;;;;;22.73;32.93;99546.13;5273629;33;33368;-84
2023/03/24 15:17:05;;;;;;;6.97;2.40;;;;;;;22.68;32.94;99540.66;5268564;33;33577;-84
2023/03/24 15:20:21;;;;;;;3.53;2.33;;;;;;;22.61;32.98;99539.03;5273535;33;33548;-89
2023/03/24 15:23:30;;;;;;;2.50;2.30;;;;;;;22.33;33.60;99529.47;5284653;33;33042;-84
2023/03/24 15:26:33;;;;;;;4.00;2.37;;;;;;;22.07;34.60;99531.38;5286496;33;34845;-84
2023/03/24 15:29:37;;;;;;;3.72;2.40;;;;;;;22.21;34.40;99528.94;5273325;33;34818;-85
2023/03/24 15:32:44;;;;;;;4.30;2.72;;;;;;;22.11;34.69;99526.16;5285139;33;34626;-85
2023/03/24 15:35:55;;;;;;;4.47;2.60;;;;;;;21.89;35.05;99521.78;5270355;33;34864;-84
2023/03/24 15:38:58;;;;;;;7.18;2.47;;;;;;;21.68;35.39;99518.19;5265401;33;33460;-84
2023/03/24 15:42:04;;;;;;;6.55;2.60;;;;;;;21.64;34.85;99524.47;5248247;33;33372;-85
2023/03/24 15:45:23;;;;;;;8.18;2.53;;;;;;;21.49;35.75;99528.84;5270050;33;34268;-84
2023/03/24 15:48:33;;;;;;;2.90;2.28;;;;;;;21.46;35.39;99526.63;5270812;33;33088;-84
2023/03/24 15:51:50;;;;;;;4.87;2.40;;;;;;;21.33;35.61;99524.41;5269771;33;33362;-84
2023/03/24 15:54:57;;;;;;;2.97;2.67;;;;;;;21.22;36.04;99525.47;5261620;33;34295;-84
2023/03/24 15:58:17;;;;;;;4.72;2.65;;;;;;;21.13;36.90;99527.06;5254982;33;34092;-84
2023/03/24 16:01:30;;;;;;;3.22;2.33;;;;;;;21.13;36.64;99524.34;5255481;33;33421;-86
2023/03/24 16:04:33;;;;;;;4.30;2.42;;;;;;;21.04;36.05;99515.81;5255509;33;34366;-86
2023/03/24 16:07:39;;;;;;;6.37;2.83;;;;;;;20.90;36.30;99522.88;5241949;33;34181;-86
2023/03/24 16:10:58;;;;;;;4.47;2.47;;;;;;;20.85;36.73;99515.44;5254760;33;33693;-86
2023/03/24 16:14:19;;;;;;;3.12;2.67;;;;;;;20.69;36.79;99513.75;5255094;33;33533;-90
2023/03/24 16:17:22;;;;;;;4.07;2.65;;;;;;;20.59;36.99;99520.81;5241756;33;33341;-87
2023/03/24 16:20:28;;;;;;;3.92;2.80;;;;;;;20.50;36.94;99519.59;5248870;33;34350;-84
2023/03/24 16:23:31;;;;;;;3.58;2.75;;;;;;;20.37;37.33;99523.63;5257629;33;33649;-84
2023/03/24 16:26:34;;;;;;;3.30;2.90;;;;;;;20.27;37.57;99522.72;5254664;33;33329;-84
2023/03/24 16:29:37;;;;;;;4.53;2.70;;;;;;;20.13;37.74;99519.66;5242361;33;33406;-87
2023/03/24 16:32:40;;;;;;;8.05;2.62;;;;;;;19.93;38.70;99521.13;5253470;33;33423;-86
2023/03/24 16:35:44;;;;;;;6.97;3.15;;;;;;;19.77;38.69;99523.97;5254621;33;32987;-85
2023/03/24 16:38:48;;;;;;;6.22;2.60;;;;;;;19.62;39.23;99521.87;5241725;33;33760;-86
2023/03/24 16:41:52;;;;;;;4.15;3.05;;;;;;;19.53;40.10;99515.25;5252550;33;33002;-86
2023/03/24 16:44:54;;;;;;;3.95;2.90;;;;;;;19.44;39.83;99512.97;5254351;33;33540;-86
2023/03/24 16:47:58;;;;;;;4.37;2.80;;;;;;;19.28;41.81;99515.81;5241809;33;34894;-86
2023/03/24 16:51:01;;;;;;;6.10;2.67;;;;;;;19.08;42.13;99513.69;5241685;33;33376;-86
2023/03/24 16:54:04;;;;;;;4.55;2.80;;;;;;;19.03;40.78;99509.78;5241538;33;33356;-86
2023/03/24 16:57:07;;;;;;;3.00;2.70;;;;;;;18.89;41.49;99510.44;5241393;33;33652;-86
